createdAt,value
2019-02-23T00:07:44.941Z,67.49
2019-02-23T00:10:13.407Z,67.45
2019-02-23T00:12:41.858Z,67.46
2019-02-23T00:15:10.265Z,67.46
2019-02-23T00:17:38.655Z,67.37
2019-02-23T00:20:46.999Z,67.39
2019-02-23T00:23:55.315Z,67.46
2019-02-23T00:28:58.137Z,67.57
2019-02-23T00:34:00.497Z,67.44
2019-02-23T00:36:28.918Z,67.45
2019-02-23T00:38:57.313Z,67.47
2019-02-23T00:41:25.707Z,67.42
2019-02-23T00:43:54.129Z,67.37
2019-02-23T00:46:22.525Z,67.34
2019-02-23T00:48:50.923Z,67.34
2019-02-23T00:53:53.583Z,67.44
2019-02-23T00:58:55.626Z,67.49
2019-02-23T01:01:24.023Z,67.42
2019-02-23T01:03:52.443Z,67.33
2019-02-23T01:06:20.845Z,67.47
2019-02-23T01:08:49.254Z,67.37
2019-02-23T01:11:17.676Z,67.23
2019-02-23T01:13:46.073Z,67.26
2019-02-23T01:16:14.463Z,67.28
2019-02-23T01:21:17.235Z,67.28
2019-02-23T01:26:40.381Z,67.16
2019-02-23T01:29:08.780Z,67.19
2019-02-23T01:31:37.167Z,67.27
2019-02-23T01:36:39.969Z,67.11
2019-02-23T01:47:31.106Z,67.19
2019-02-23T01:52:33.284Z,67.19
2019-02-23T01:55:01.718Z,67.17
2019-02-23T01:57:30.118Z,67.08
2019-02-23T01:59:58.528Z,66.97
2019-02-23T02:02:26.991Z,67.03
2019-02-23T02:05:14.871Z,67.06
2019-02-23T02:10:36.936Z,67.09
2019-02-23T02:18:46.772Z,66.91
2019-02-23T02:23:49.524Z,66.85
2019-02-23T02:26:17.959Z,66.75
2019-02-23T02:28:46.364Z,66.58
2019-02-23T02:31:14.763Z,66.49
2019-02-23T02:34:21.788Z,66.39
2019-02-23T02:36:50.188Z,66.25
2019-02-23T02:39:18.595Z,66.20
2019-02-23T02:41:47.071Z,66.03
2019-02-23T02:44:15.472Z,65.85
2019-02-23T02:46:43.878Z,65.66
2019-02-23T02:49:12.301Z,65.54
2019-02-23T02:51:40.700Z,65.36
2019-02-23T02:54:09.106Z,65.18
2019-02-23T02:59:11.962Z,65.00
2019-02-23T03:01:40.441Z,64.97
2019-02-23T03:04:28.096Z,65.00
2019-02-23T03:09:30.930Z,64.84
2019-02-23T03:11:59.318Z,64.69
2019-02-23T03:17:01.381Z,64.24
2019-02-23T03:19:29.807Z,64.12
2019-02-23T03:21:58.254Z,63.84
2019-02-23T03:24:26.647Z,63.87
2019-02-23T03:26:55.058Z,63.68
2019-02-23T03:34:44.834Z,62.93
2019-02-23T03:37:13.224Z,62.96
2019-02-23T03:48:03.632Z,62.58
2019-02-23T03:50:32.036Z,62.39
2019-02-23T03:53:00.494Z,62.14
2019-02-23T03:56:08.803Z,62.09
2019-02-23T03:58:37.294Z,61.84
2019-02-23T04:01:05.693Z,61.74
2019-02-23T04:03:34.090Z,61.47
2019-02-23T04:08:36.214Z,61.36
2019-02-23T04:13:38.532Z,60.83
2019-02-23T04:16:06.970Z,60.78
2019-02-23T04:18:35.365Z,60.56
2019-02-23T04:21:15.685Z,60.61
2019-02-23T04:23:44.080Z,60.35
2019-02-23T04:26:12.483Z,60.30
2019-02-23T04:28:40.942Z,60.17
2019-02-23T04:31:09.336Z,60.17
2019-02-23T04:33:37.731Z,59.94
2019-02-23T04:38:39.728Z,59.55
2019-02-23T04:47:16.285Z,59.38
2019-02-23T04:50:24.616Z,59.27
2019-02-23T04:52:53.006Z,59.13
2019-02-23T04:55:21.418Z,59.05
2019-02-23T05:00:23.500Z,58.76
2019-02-23T05:02:51.895Z,58.65
2019-02-23T05:05:20.308Z,58.50
2019-02-23T05:07:48.698Z,58.44
2019-02-23T05:10:17.095Z,58.40
2019-02-23T05:12:45.524Z,58.38
2019-02-23T05:15:13.980Z,58.28
2019-02-23T05:17:42.334Z,58.12
2019-02-23T05:23:00.037Z,57.92
2019-02-23T05:28:02.843Z,58.09
2019-02-23T05:33:25.177Z,58.04
2019-02-23T05:35:53.613Z,58.13
2019-02-23T05:38:22.045Z,58.22
2019-02-23T05:40:50.399Z,58.15
2019-02-23T05:43:18.824Z,58.22
2019-02-23T05:45:47.226Z,58.22
2019-02-23T05:51:04.713Z,58.08
2019-02-23T05:53:33.114Z,58.15
2019-02-23T05:56:01.502Z,58.22
2019-02-23T05:58:29.919Z,58.09
2019-02-23T06:00:58.317Z,58.13
2019-02-23T06:03:26.716Z,57.97
2019-02-23T06:05:55.149Z,57.91
2019-02-23T06:08:23.530Z,57.83
2019-02-23T06:10:51.977Z,57.85
2019-02-23T06:13:20.402Z,57.78
2019-02-23T06:15:48.783Z,57.83
2019-02-23T06:18:17.177Z,57.90
2019-02-23T06:23:19.880Z,58.02
2019-02-23T06:25:48.334Z,58.13
2019-02-23T06:28:16.725Z,58.11
2019-02-23T06:30:45.125Z,57.90
2019-02-23T06:33:13.545Z,57.69
2019-02-23T06:35:41.934Z,57.57
2019-02-23T06:38:10.391Z,57.47
2019-02-23T06:43:13.087Z,57.34
2019-02-23T06:45:41.558Z,57.30
2019-02-23T06:48:09.955Z,57.18
2019-02-23T06:50:38.345Z,57.17
2019-02-23T06:53:06.775Z,57.24
2019-02-23T06:55:54.367Z,57.24
2019-02-23T06:58:22.796Z,57.22
2019-02-23T07:00:51.185Z,57.23
2019-02-23T07:03:19.607Z,57.35
2019-02-23T07:05:48.013Z,57.40
2019-02-23T07:08:16.423Z,57.24
2019-02-23T07:10:44.824Z,57.20
2019-02-23T07:13:13.280Z,57.16
2019-02-23T07:15:41.684Z,57.10
2019-02-23T07:18:10.087Z,57.01
2019-02-23T07:20:44.285Z,56.93
2019-02-23T07:23:08.623Z,56.91
2019-02-23T07:25:37.019Z,56.99
2019-02-23T07:28:17.814Z,56.91
2019-02-23T07:30:46.211Z,56.89
2019-02-23T07:33:14.607Z,56.97
2019-02-23T07:38:16.687Z,56.79
2019-02-23T07:40:45.077Z,56.78
2019-02-23T07:45:47.940Z,56.72
2019-02-23T07:48:16.379Z,56.79
2019-02-23T07:50:44.777Z,56.74
2019-02-23T07:53:13.170Z,56.71
2019-02-23T07:58:15.617Z,56.68
2019-02-23T08:00:44.104Z,56.64
2019-02-23T08:03:12.435Z,56.63
2019-02-23T08:06:00.320Z,56.61
2019-02-23T08:08:28.745Z,56.45
2019-02-23T08:10:57.225Z,56.30
2019-02-23T08:13:25.727Z,56.13
2019-02-23T08:15:54.122Z,56.01
2019-02-23T08:18:22.520Z,55.99
2019-02-23T08:23:25.429Z,55.82
2019-02-23T08:28:27.539Z,55.83
2019-02-23T08:31:15.150Z,55.79
2019-02-23T08:33:43.552Z,55.82
2019-02-23T08:44:33.475Z,55.54
2019-02-23T08:47:01.899Z,55.45
2019-02-23T08:49:30.288Z,55.52
2019-02-23T08:52:48.723Z,56.13
2019-02-23T08:55:49.007Z,55.84
2019-02-23T09:00:51.094Z,56.01
2019-02-23T09:03:19.532Z,55.72
2019-02-23T09:05:47.944Z,55.64
2019-02-23T09:08:16.336Z,55.94
2019-02-23T09:10:44.764Z,55.90
2019-02-23T09:13:13.183Z,55.54
2019-02-23T09:15:41.653Z,55.55
2019-02-23T09:18:10.076Z,55.65
2019-02-23T09:20:38.463Z,55.87
2019-02-23T09:23:06.872Z,55.52
2019-02-23T09:28:09.181Z,55.26
2019-02-23T09:33:24.421Z,55.30
2019-02-23T09:35:52.915Z,55.17
2019-02-23T09:38:40.555Z,55.16
2019-02-23T09:41:09.060Z,55.03
2019-02-23T09:48:59.426Z,55.02
2019-02-23T09:51:27.865Z,55.42
2019-02-23T09:54:15.600Z,55.28
2019-02-23T09:56:44.060Z,55.14
2019-02-23T09:59:12.459Z,54.99
2019-02-23T10:01:40.852Z,55.01
2019-02-23T10:04:09.281Z,55.18
2019-02-23T10:06:37.675Z,55.02
2019-02-23T10:09:46.019Z,55.15
2019-02-23T10:12:14.414Z,55.08
2019-02-23T10:14:42.826Z,54.82
2019-02-23T10:17:11.308Z,54.75
2019-02-23T10:19:39.704Z,54.39
2019-02-23T10:22:08.096Z,53.97
2019-02-23T10:24:36.522Z,53.88
2019-02-23T10:27:24.251Z,53.44
2019-02-23T10:29:52.669Z,53.07
2019-02-23T10:32:21.065Z,53.00
2019-02-23T10:34:49.465Z,52.77
2019-02-23T10:39:52.305Z,52.74
2019-02-23T10:42:20.713Z,52.29
2019-02-23T10:44:49.140Z,52.53
2019-02-23T10:47:17.509Z,52.56
2019-02-23T10:52:19.952Z,51.83
2019-02-23T10:54:48.386Z,51.77
2019-02-23T10:57:16.771Z,51.70
2019-02-23T10:59:45.169Z,51.69
2019-02-23T11:05:48.119Z,51.37
2019-02-23T11:08:16.531Z,51.39
2019-02-23T11:11:04.167Z,51.34
2019-02-23T11:13:32.555Z,51.10
2019-02-23T11:16:00.967Z,50.96
2019-02-23T11:18:29.401Z,50.69
2019-02-23T11:21:16.993Z,50.33
2019-02-23T11:24:04.774Z,49.84
2019-02-23T11:26:33.185Z,49.44
2019-02-23T11:29:01.649Z,49.13
2019-02-23T11:34:04.005Z,48.86
2019-02-23T11:36:32.402Z,49.13
2019-02-23T11:39:00.823Z,48.79
2019-02-23T11:41:29.247Z,48.50
2019-02-23T11:43:57.673Z,48.30
2019-02-23T11:46:26.053Z,48.06
2019-02-23T11:48:54.455Z,48.08
2019-02-23T11:51:22.849Z,48.26
2019-02-23T11:56:25.387Z,48.23
2019-02-23T11:58:53.781Z,48.16
2019-02-23T12:03:56.716Z,48.15
2019-02-23T12:06:25.133Z,47.70
2019-02-23T12:08:53.547Z,47.55
2019-02-23T12:11:21.946Z,47.51
2019-02-23T12:16:24.104Z,47.36
2019-02-23T12:21:26.702Z,47.23
2019-02-23T12:24:05.474Z,47.40
2019-02-23T12:28:58.809Z,47.06
2019-02-23T12:31:27.213Z,46.99
2019-02-23T12:36:29.568Z,46.34
2019-02-23T12:41:31.949Z,46.29
2019-02-23T12:44:00.340Z,46.32
2019-02-23T12:46:28.776Z,46.03
2019-02-23T12:48:57.173Z,45.70
2019-02-23T12:51:25.570Z,45.19
2019-02-23T12:56:28.214Z,45.00
2019-02-23T13:01:30.327Z,45.09
2019-02-23T13:03:58.799Z,45.27
2019-02-23T13:06:27.194Z,45.12
2019-02-23T13:12:29.132Z,44.95
2019-02-23T13:15:37.570Z,44.89
2019-02-23T13:18:45.884Z,44.70
2019-02-23T13:21:52.923Z,44.46
2019-02-23T13:25:01.239Z,44.28
2019-02-23T13:28:09.760Z,43.96
2019-02-23T13:31:18.112Z,43.54
2019-02-23T13:34:25.129Z,43.17
2019-02-23T13:37:32.114Z,42.99
2019-02-23T13:40:39.332Z,42.90
2019-02-23T13:43:46.329Z,42.65
2019-02-23T13:46:53.358Z,42.04
2019-02-23T13:50:00.431Z,41.80
2019-02-23T13:53:08.824Z,41.28
2019-02-23T13:56:15.819Z,40.34
2019-02-23T13:59:22.944Z,39.93
2019-02-23T14:02:29.940Z,39.61
2019-02-23T14:05:37.835Z,39.85
2019-02-23T14:08:46.157Z,40.25
2019-02-23T14:11:53.197Z,40.07
2019-02-23T14:15:00.296Z,39.76
2019-02-23T14:18:08.667Z,39.74
2019-02-23T14:21:17.045Z,39.32
2019-02-23T14:24:25.663Z,39.19
2019-02-23T14:27:33.993Z,39.10
2019-02-23T14:30:41.009Z,39.26
2019-02-23T14:33:49.383Z,39.14
2019-02-23T14:36:57.745Z,39.21
2019-02-23T14:40:06.151Z,39.31
2019-02-23T14:43:14.649Z,38.95
2019-02-23T14:46:22.959Z,38.79
2019-02-23T14:49:31.490Z,38.73
2019-02-23T14:52:39.825Z,38.48
2019-02-23T14:55:48.253Z,38.63
2019-02-23T14:58:56.680Z,38.79
2019-02-23T15:02:05.341Z,38.81
2019-02-23T15:05:13.713Z,38.62
2019-02-23T15:08:20.825Z,38.72
2019-02-23T15:11:27.818Z,38.58
2019-02-23T15:14:34.917Z,38.63
2019-02-23T15:17:43.235Z,38.72
2019-02-23T15:20:51.577Z,38.45
2019-02-23T15:23:59.953Z,38.37
2019-02-23T15:27:06.965Z,38.26
2019-02-23T15:30:15.276Z,38.35
2019-02-23T15:33:23.739Z,38.42
2019-02-23T15:36:32.055Z,38.34
2019-02-23T15:39:40.598Z,37.87
2019-02-23T15:42:48.969Z,37.66
2019-02-23T15:45:29.855Z,37.40
2019-02-23T15:48:38.219Z,37.70
2019-02-23T15:51:06.631Z,37.36
2019-02-23T15:53:35.015Z,37.09
2019-02-23T15:56:03.426Z,37.15
2019-02-23T15:58:51.126Z,36.95
2019-02-23T16:06:41.593Z,36.00
2019-02-23T16:09:49.976Z,35.67
2019-02-23T16:12:18.385Z,36.14
2019-02-23T16:14:46.862Z,36.76
2019-02-23T16:17:15.314Z,36.70
2019-02-23T16:19:43.715Z,36.60
2019-02-23T16:24:59.640Z,36.45
2019-02-23T16:27:28.052Z,36.84
2019-02-23T16:29:56.445Z,36.75
2019-02-23T16:32:24.926Z,36.15
2019-02-23T16:34:53.333Z,36.02
2019-02-23T16:37:21.806Z,36.20
2019-02-23T16:42:24.149Z,35.78
2019-02-23T16:44:52.574Z,35.54
2019-02-23T16:47:20.979Z,35.47
2019-02-23T16:49:49.382Z,35.22
2019-02-23T16:54:51.570Z,36.09
2019-02-23T16:57:19.967Z,36.01
2019-02-23T16:59:48.408Z,36.00
2019-02-23T17:02:16.926Z,35.83
2019-02-23T17:04:53.592Z,35.55
2019-02-23T17:09:49.810Z,35.67
2019-02-23T17:12:18.231Z,35.57
2019-02-23T17:15:05.851Z,36.19
2019-02-23T17:17:34.238Z,36.22
2019-02-23T17:25:44.996Z,36.22
2019-02-23T17:31:06.378Z,35.95
2019-02-23T17:33:34.824Z,35.91
2019-02-23T17:36:03.260Z,36.17
2019-02-23T17:38:31.631Z,36.14
2019-02-23T17:43:33.867Z,36.49
2019-02-23T17:46:02.267Z,36.69
2019-02-23T17:48:42.935Z,36.86
2019-02-23T17:51:11.344Z,37.13
2019-02-23T17:53:39.733Z,37.55
2019-02-23T17:56:12.289Z,37.87
2019-02-23T17:58:57.638Z,38.09
2019-02-23T18:04:00.220Z,38.11
2019-02-23T18:06:28.653Z,38.16
2019-02-23T18:08:57.042Z,38.44
2019-02-23T18:11:25.444Z,38.50
2019-02-23T18:16:27.871Z,38.72
2019-02-23T18:18:57.571Z,38.80
2019-02-23T18:21:26.425Z,38.77
2019-02-23T18:23:54.851Z,38.67
2019-02-23T18:28:57.627Z,38.66
2019-02-23T18:33:59.533Z,39.04
2019-02-23T18:36:27.928Z,39.04
2019-02-23T18:39:15.618Z,38.98
2019-02-23T18:41:44.029Z,39.00
2019-02-23T18:44:12.421Z,39.11
2019-02-23T18:49:14.525Z,38.91
2019-02-23T18:51:42.967Z,39.07
2019-02-23T18:54:11.353Z,39.19
2019-02-23T18:56:39.756Z,39.21
2019-02-23T19:01:42.466Z,39.33
2019-02-23T19:04:12.281Z,39.39
2019-02-23T19:06:41.017Z,39.62
2019-02-23T19:09:09.417Z,40.05
2019-02-23T19:14:12.540Z,39.78
2019-02-23T19:17:00.103Z,39.74
2019-02-23T19:19:28.547Z,39.82
2019-02-23T19:21:56.994Z,39.93
2019-02-23T19:26:59.702Z,40.14
2019-02-23T19:29:28.131Z,40.25
2019-02-23T19:32:15.855Z,40.20
2019-02-23T19:37:18.574Z,40.39
2019-02-23T19:39:47.007Z,40.42
2019-02-23T19:42:15.420Z,40.33
2019-02-23T19:44:43.826Z,40.46
2019-02-23T19:47:12.271Z,40.46
2019-02-23T19:49:40.665Z,40.55
2019-02-23T19:52:09.070Z,40.61
2019-02-23T19:57:11.768Z,40.27
2019-02-23T19:59:59.777Z,40.39
2019-02-23T20:02:28.167Z,40.70
2019-02-23T20:04:56.558Z,40.92
2019-02-23T20:07:24.998Z,41.08
2019-02-23T20:09:53.402Z,41.24
2019-02-23T20:12:21.826Z,41.35
2019-02-23T20:14:50.257Z,41.42
2019-02-23T20:17:18.655Z,41.46
2019-02-23T20:19:47.063Z,41.43
2019-02-23T20:24:49.902Z,41.53
2019-02-23T20:29:52.594Z,41.25
2019-02-23T20:34:54.512Z,41.14
2019-02-23T20:37:22.915Z,41.13
2019-02-23T20:42:24.806Z,41.29
2019-02-23T20:44:53.200Z,41.38
2019-02-23T20:47:21.627Z,41.51
2019-02-23T20:50:04.491Z,41.63
2019-02-23T20:55:14.635Z,41.84
2019-02-23T20:57:43.007Z,41.96
2019-02-23T21:00:51.472Z,42.03
2019-02-23T21:03:19.830Z,41.98
2019-02-23T21:05:48.241Z,41.91
2019-02-23T21:10:50.674Z,42.16
2019-02-23T21:13:19.069Z,42.15
2019-02-23T21:18:21.486Z,42.60
2019-02-23T21:20:51.605Z,42.66
2019-02-23T21:23:20.017Z,42.68
2019-02-23T21:25:48.417Z,42.69
2019-02-23T21:28:16.844Z,42.62
2019-02-23T21:30:45.246Z,42.80
2019-02-23T21:33:13.634Z,43.11
2019-02-23T21:38:16.006Z,44.07
2019-02-23T21:40:44.397Z,44.40
2019-02-23T21:43:12.846Z,44.44
2019-02-23T21:45:41.245Z,44.51
2019-02-23T21:48:09.642Z,44.54
2019-02-23T21:50:38.075Z,44.48
2019-02-23T21:53:06.472Z,44.55
2019-02-23T21:55:34.869Z,44.59
2019-02-23T22:00:37.607Z,44.74
2019-02-23T22:03:07.132Z,44.51
2019-02-23T22:05:36.151Z,44.37
2019-02-23T22:08:04.548Z,44.32
2019-02-23T22:13:06.567Z,44.49
2019-02-23T22:15:34.975Z,44.81
2019-02-23T22:20:37.746Z,45.59
2019-02-23T22:25:39.989Z,46.62
2019-02-23T22:28:08.389Z,46.86
2019-02-23T22:30:36.829Z,46.78
2019-02-23T22:33:05.232Z,46.56
2019-02-23T22:35:33.629Z,46.58
2019-02-23T22:38:02.062Z,46.71
2019-02-23T22:40:30.448Z,46.69
2019-02-23T22:42:58.847Z,46.91
2019-02-23T22:45:27.317Z,47.15
2019-02-23T22:47:55.717Z,47.25
2019-02-23T22:50:24.123Z,47.18
2019-02-23T22:55:26.367Z,46.99
2019-02-23T22:57:54.792Z,47.15
2019-02-23T23:03:12.277Z,47.50
2019-02-23T23:11:02.449Z,48.43
2019-02-23T23:16:04.933Z,48.37
2019-02-23T23:18:33.357Z,48.36
2019-02-23T23:21:01.749Z,48.28
2019-02-23T23:23:30.144Z,48.29
2019-02-23T23:31:06.395Z,48.13
2019-02-23T23:36:09.446Z,47.97
2019-02-23T23:41:12.170Z,47.88
2019-02-23T23:43:40.598Z,47.99
2019-02-23T23:46:08.997Z,48.14
2019-02-23T23:48:37.394Z,48.26
2019-02-23T23:51:05.879Z,48.35
2019-02-23T23:54:14.217Z,48.37
2019-02-23T23:59:16.597Z,48.20
